< Typhoon 201625 2016 Season Typhoon 201701 >
Typhoon 201626 (NOCK-TEN)
General InformationTrack Information on Google MapsDetailed Wind InformationForecast History on Google MapsAccess Analytics MapList of All Images || NewsDisaster Info.WeblogTrackbackTyphoon FrontTwiphoonTyphoon Now!Typhoon ImaginationJMA Disaster Info. XMLResourceGoogle EarthGE AnimationAtom FeedGeoJSON
Detalied Best Track (Time Zone = UTC)
Year Month Day Hour Lat. Long. Pressure (hPa) Wind (kt) Class Image Chart
2016 12 20 12 6.2 144.5 1004 0 2 Image Chart
2016 12 20 18 6.2 143.4 1004 0 2 Image Chart
2016 12 21 00 6.3 142.4 1004 0 2 Image Chart
2016 12 21 06 6.4 141.7 1002 0 2 Image Chart
2016 12 21 12 6.8 140.9 1004 0 2 Image Chart
2016 12 21 18 7.8 140.0 998 35 3 Image Chart
2016 12 22 00 8.6 139.1 994 40 3 Image Chart
2016 12 22 06 9.4 137.8 994 40 3 Image Chart
2016 12 22 12 10.2 136.3 992 45 3 Image Chart
2016 12 22 18 11.1 134.8 985 55 4 Image Chart
2016 12 23 00 11.7 133.3 985 55 4 Image Chart
2016 12 23 06 11.9 132.1 970 70 5 Image Chart
2016 12 23 12 12.6 131.0 955 80 5 Image Chart
2016 12 23 18 13.0 129.9 950 85 5 Image Chart
2016 12 24 00 13.1 128.9 935 95 5 Image Chart
2016 12 24 06 13.3 128.2 915 105 5 Image Chart
2016 12 24 12 13.4 127.5 915 105 5 Image Chart
2016 12 24 18 13.6 126.7 915 105 5 Image Chart
2016 12 25 00 13.5 126.0 915 105 5 Image Chart
2016 12 25 06 13.5 125.1 925 100 5 Image Chart
2016 12 25 12 13.5 124.0 925 100 5 Image Chart
2016 12 25 18 13.5 122.8 950 85 5 Image Chart
2016 12 26 00 13.6 121.4 950 85 5 Image Chart
2016 12 26 06 14.1 119.7 970 70 5 Image Chart
2016 12 26 12 14.4 118.4 970 70 5 Image Chart
2016 12 26 18 14.8 117.0 975 65 5 Image Chart
2016 12 27 00 15.0 116.3 980 60 4 Image Chart
2016 12 27 06 14.7 116.0 985 50 4 Image Chart
2016 12 27 12 14.2 115.5 996 40 3 Image Chart
2016 12 27 18 13.3 114.7 1004 0 2 Image Chart
2016 12 28 00 13.0 113.3 1006 0 2 Image Chart
2016 12 28 06 11.9 112.3 1006 0 2 Image Chart
2016 12 28 12 11.2 111.4 1008 0 2 Image Chart
Japan Meteorological Agency Best Track Data | Correction Date : 2017-01-24
< Typhoon 201625 2016 Season Typhoon 201701 >

Help